Time;durP1;ratioP1;P1;durP2;ratioP2;P2;SDS_P1;SDS_P2;PMS_P1;PMS_P2;Temp;Humidity;BMP_temperature;BMP_pressure;BME280_temperature;BME280_humidity;BME280_pressure;Samples;Min_cycle;Max_cycle;Signal;HPM_P1;HPM_P2
2021/08/21 00:02:25;;;;;;;10.17;9.27;;;15.60;99.90;;;;;;5093731;28;20208;-69
2021/08/21 00:04:51;;;;;;;11.37;10.23;;;15.60;99.90;;;;;;5081091;28;20212;-69
2021/08/21 00:07:17;;;;;;;10.30;9.40;;;15.50;99.90;;;;;;5074557;28;20197;-69
2021/08/21 00:09:45;;;;;;;11.83;9.30;;;15.60;99.90;;;;;;5075498;28;20323;-69
2021/08/21 00:12:11;;;;;;;10.00;9.27;;;15.60;99.90;;;;;;5074477;28;20197;-69
2021/08/21 00:14:37;;;;;;;9.33;8.53;;;15.60;99.90;;;;;;5093645;28;20649;-67
2021/08/21 00:17:03;;;;;;;9.80;9.00;;;15.50;99.90;;;;;;5094818;28;20162;-67
2021/08/21 00:19:30;;;;;;;11.70;10.63;;;15.50;99.90;;;;;;5076668;28;20178;-68
2021/08/21 00:21:55;;;;;;;11.50;10.70;;;15.50;99.90;;;;;;5074306;28;20210;-69
2021/08/21 00:24:21;;;;;;;10.97;10.07;;;15.60;99.90;;;;;;5075298;28;20210;-69
2021/08/21 00:26:46;;;;;;;11.93;10.87;;;15.50;99.90;;;;;;5074376;28;20245;-69
2021/08/21 00:29:12;;;;;;;11.13;10.33;;;15.40;99.90;;;;;;5088972;28;20181;-68
2021/08/21 00:31:38;;;;;;;11.60;10.50;;;15.40;99.90;;;;;;5094051;28;20166;-69
2021/08/21 00:34:04;;;;;;;11.10;10.23;;;15.40;99.90;;;;;;5080010;28;20934;-69
2021/08/21 00:36:30;;;;;;;10.30;9.50;;;15.40;99.90;;;;;;5092133;28;20260;-69
2021/08/21 00:38:56;;;;;;;10.87;9.87;;;15.30;99.90;;;;;;5080461;28;20178;-69
2021/08/21 00:41:21;;;;;;;10.17;8.73;;;15.30;99.90;;;;;;5073738;28;20600;-69
2021/08/21 00:43:47;;;;;;;10.33;9.33;;;15.30;99.90;;;;;;5082002;28;20209;-69
2021/08/21 00:46:12;;;;;;;9.97;9.03;;;15.20;99.90;;;;;;5074013;28;20174;-69
2021/08/21 00:48:38;;;;;;;10.37;9.17;;;15.20;99.90;;;;;;5083511;28;20673;-68
2021/08/21 00:51:05;;;;;;;10.77;9.77;;;15.20;99.90;;;;;;5093816;28;20181;-68
2021/08/21 00:53:31;;;;;;;10.50;9.60;;;15.20;99.90;;;;;;5078956;28;20612;-68
2021/08/21 00:55:59;;;;;;;9.47;8.67;;;15.20;99.90;;;;;;5072478;28;20525;-69
2021/08/21 00:58:25;;;;;;;10.60;9.17;;;15.20;99.90;;;;;;5086945;28;20173;-69
2021/08/21 01:00:55;;;;;;;10.50;9.70;;;15.20;99.90;;;;;;5093547;28;20208;-69
2021/08/21 01:03:21;;;;;;;9.80;9.00;;;15.20;99.90;;;;;;5080202;28;20228;-68
2021/08/21 01:05:47;;;;;;;9.90;8.90;;;15.20;99.90;;;;;;5073568;28;20189;-69
2021/08/21 01:08:12;;;;;;;9.90;9.10;;;15.20;99.90;;;;;;5091333;28;20178;-68
2021/08/21 01:10:38;;;;;;;10.27;9.47;;;15.20;99.90;;;;;;5093420;28;20188;-68
2021/08/21 01:13:03;;;;;;;11.67;10.13;;;15.20;99.90;;;;;;5077270;28;20198;-68
2021/08/21 01:15:29;;;;;;;10.83;9.83;;;15.20;99.90;;;;;;5071995;28;20174;-69
2021/08/21 01:17:55;;;;;;;10.70;9.60;;;15.10;99.90;;;;;;5087488;28;20181;-69
2021/08/21 01:20:26;;;;;;;11.40;10.13;;;15.10;99.90;;;;;;5093294;28;20220;-68
2021/08/21 01:22:53;;;;;;;10.33;9.33;;;15.10;99.90;;;;;;5078692;28;20292;-69
2021/08/21 01:25:24;;;;;;;12.10;10.90;;;15.00;99.90;;;;;;5073166;28;20194;-69
2021/08/21 01:27:50;;;;;;;11.77;10.77;;;15.00;99.90;;;;;;5084224;28;20703;-68
2021/08/21 01:30:16;;;;;;;12.27;10.97;;;15.10;99.90;;;;;;5093057;28;20170;-66
2021/08/21 01:32:41;;;;;;;12.43;11.20;;;15.00;99.90;;;;;;5080434;28;20273;-69
2021/08/21 01:35:08;;;;;;;12.10;10.90;;;14.90;99.90;;;;;;5073084;28;20537;-69
2021/08/21 01:37:33;;;;;;;12.23;11.13;;;14.90;99.90;;;;;;5072830;28;20208;-69
2021/08/21 01:39:59;;;;;;;11.90;10.70;;;14.90;99.90;;;;;;5087134;28;20221;-69
2021/08/21 01:42:25;;;;;;;12.63;11.33;;;14.90;99.90;;;;;;5090741;28;20197;-67
2021/08/21 01:44:51;;;;;;;12.33;11.03;;;14.90;99.90;;;;;;5092455;28;20280;-67
2021/08/21 01:47:18;;;;;;;12.43;11.13;;;14.80;99.90;;;;;;5085627;28;20182;-68
2021/08/21 01:49:50;;;;;;;12.07;10.80;;;14.80;99.90;;;;;;5072474;28;20162;-69
2021/08/21 01:52:16;;;;;;;11.90;10.90;;;14.90;99.90;;;;;;5073754;28;20544;-69
2021/08/21 01:54:41;;;;;;;11.37;10.47;;;14.80;99.90;;;;;;5072663;28;20256;-69
2021/08/21 01:57:07;;;;;;;10.67;9.73;;;14.80;99.90;;;;;;5077783;28;20264;-68
2021/08/21 01:59:43;;;;;;;12.10;11.03;;;14.80;99.90;;;;;;5092483;28;20587;-68
2021/08/21 02:02:18;;;;;;;11.93;10.73;;;14.80;99.90;;;;;;5085918;28;20746;-68
2021/08/21 02:04:44;;;;;;;11.73;10.63;;;14.80;99.90;;;;;;5072478;28;20193;-68
2021/08/21 02:07:10;;;;;;;11.87;10.73;;;14.70;99.90;;;;;;5081054;28;20188;-68
2021/08/21 02:09:36;;;;;;;12.77;10.80;;;14.70;99.90;;;;;;5092260;28;20189;-68
2021/08/21 02:12:04;;;;;;;10.80;9.83;;;14.70;99.90;;;;;;5085109;28;20246;-68
2021/08/21 02:14:31;;;;;;;12.67;10.50;;;14.70;99.90;;;;;;5071033;28;20523;-68
2021/08/21 02:16:59;;;;;;;12.40;11.20;;;14.60;99.90;;;;;;5074710;28;20235;-68
2021/08/21 02:19:26;;;;;;;12.70;11.50;;;14.70;99.90;;;;;;5071870;28;20170;-68
2021/08/21 02:21:53;;;;;;;12.73;10.90;;;14.60;99.90;;;;;;5077093;28;20321;-68
2021/08/21 02:24:26;;;;;;;11.77;10.67;;;14.70;99.90;;;;;;5092307;28;20189;-68
2021/08/21 02:26:58;;;;;;;15.03;11.23;;;14.60;99.90;;;;;;5086358;28;20170;-68
2021/08/21 02:29:24;;;;;;;12.90;11.70;;;14.60;99.90;;;;;;5071866;28;20190;-68
2021/08/21 02:31:49;;;;;;;11.83;10.63;;;14.60;99.90;;;;;;5076631;28;20634;-69
2021/08/21 02:34:15;;;;;;;13.53;11.20;;;14.60;99.90;;;;;;5092508;28;20879;-68
2021/08/21 02:36:42;;;;;;;12.90;11.70;;;14.60;99.90;;;;;;5088013;28;20224;-68
2021/08/21 02:39:09;;;;;;;12.03;10.93;;;14.50;99.90;;;;;;5079373;28;20182;-68
2021/08/21 02:41:35;;;;;;;12.73;11.43;;;14.50;99.90;;;;;;5090110;28;20269;-68
2021/08/21 02:44:00;;;;;;;13.17;11.53;;;14.50;99.90;;;;;;5084405;28;20284;-68
2021/08/21 02:46:26;;;;;;;16.10;10.07;;;14.40;99.90;;;;;;5072263;28;20643;-67
2021/08/21 02:48:52;;;;;;;13.27;10.63;;;14.50;99.90;;;;;;5092098;28;20650;-68
2021/08/21 02:51:17;;;;;;;11.80;10.50;;;14.40;99.90;;;;;;5091657;28;20169;-68
2021/08/21 02:53:43;;;;;;;11.97;10.67;;;14.40;99.90;;;;;;5072582;28;20441;-68
2021/08/21 02:56:08;;;;;;;10.53;9.23;;;14.40;99.90;;;;;;5071302;28;20232;-68
2021/08/21 02:58:34;;;;;;;10.67;9.60;;;14.40;99.90;;;;;;5088121;28;20173;-67
2021/08/21 03:01:00;;;;;;;10.40;9.60;;;14.40;99.90;;;;;;5090222;28;20260;-68
2021/08/21 03:03:25;;;;;;;10.60;9.27;;;14.30;99.90;;;;;;5075100;28;20201;-68
2021/08/21 03:05:51;;;;;;;12.83;11.07;;;14.40;99.90;;;;;;5080758;28;20165;-68
2021/08/21 03:08:16;;;;;;;10.93;10.03;;;14.40;99.90;;;;;;5091761;28;20161;-67
2021/08/21 03:10:42;;;;;;;9.93;9.13;;;14.40;99.90;;;;;;5083879;28;20295;-67
2021/08/21 03:13:07;;;;;;;11.53;9.87;;;14.30;99.90;;;;;;5071517;28;20190;-68
2021/08/21 03:15:33;;;;;;;13.20;12.10;;;14.20;99.90;;;;;;5076662;28;20627;-68
2021/08/21 03:17:59;;;;;;;11.40;10.50;;;14.20;99.90;;;;;;5091663;28;20508;-68
2021/08/21 03:20:26;;;;;;;11.30;10.20;;;14.20;99.90;;;;;;5085529;28;20174;-67
2021/08/21 03:22:52;;;;;;;10.77;9.50;;;14.20;99.90;;;;;;5071251;28;20206;-68
2021/08/21 03:25:18;;;;;;;10.30;9.40;;;14.20;99.90;;;;;;5071152;28;20212;-68
2021/08/21 03:27:44;;;;;;;11.47;10.27;;;14.20;99.90;;;;;;5071338;28;20261;-68
2021/08/21 03:30:11;;;;;;;11.33;10.40;;;14.20;99.90;;;;;;5072978;28;21798;-68
2021/08/21 03:32:37;;;;;;;10.07;9.10;;;14.30;99.90;;;;;;5090973;28;20237;-68
2021/08/21 03:35:03;;;;;;;11.30;10.10;;;14.20;99.90;;;;;;5090496;28;20173;-67
2021/08/21 03:37:29;;;;;;;10.53;9.63;;;14.20;99.90;;;;;;5071206;28;20178;-67
2021/08/21 03:39:55;;;;;;;10.43;9.40;;;14.30;99.90;;;;;;5071009;28;20162;-68
2021/08/21 03:42:21;;;;;;;10.87;9.77;;;14.30;99.90;;;;;;5084833;28;20251;-67
2021/08/21 03:44:46;;;;;;;9.73;8.93;;;14.30;99.90;;;;;;5069934;28;20584;-67
2021/08/21 03:47:12;;;;;;;11.57;10.43;;;14.30;99.90;;;;;;5088301;28;20764;-69
2021/08/21 03:49:38;;;;;;;13.50;9.37;;;14.30;99.90;;;;;;5091356;28;20696;-68
2021/08/21 03:52:04;;;;;;;10.87;9.97;;;14.30;99.90;;;;;;5071899;28;20247;-68
2021/08/21 03:54:30;;;;;;;11.60;10.40;;;14.30;99.90;;;;;;5069921;28;20644;-67
2021/08/21 03:56:55;;;;;;;10.73;9.60;;;14.40;99.90;;;;;;5085651;28;20181;-68
2021/08/21 03:59:21;;;;;;;10.90;9.90;;;14.30;99.90;;;;;;5091119;28;20636;-68
2021/08/21 04:01:47;;;;;;;11.10;10.10;;;14.40;99.90;;;;;;5075658;28;20188;-68
2021/08/21 04:04:12;;;;;;;10.33;9.43;;;14.40;99.90;;;;;;5070885;28;20280;-68
2021/08/21 04:06:40;;;;;;;10.73;9.63;;;14.50;99.90;;;;;;5084334;28;20665;-68
2021/08/21 04:09:06;;;;;;;12.13;10.77;;;14.40;99.90;;;;;;5085067;28;20177;-68
2021/08/21 04:11:32;;;;;;;10.77;9.77;;;14.50;99.90;;;;;;5074277;28;20501;-70
2021/08/21 04:13:57;;;;;;;11.30;10.10;;;14.50;99.90;;;;;;5079661;28;20180;-68
2021/08/21 04:16:23;;;;;;;11.73;10.63;;;14.50;99.90;;;;;;5094852;28;20177;-69
2021/08/21 04:18:48;;;;;;;10.53;9.57;;;14.50;99.90;;;;;;5091607;28;20174;-67
2021/08/21 04:21:14;;;;;;;11.67;9.10;;;14.50;99.90;;;;;;5094345;28;20184;-68
2021/08/21 04:23:40;;;;;;;11.30;10.13;;;14.50;99.90;;;;;;5093105;28;20197;-69
2021/08/21 04:26:06;;;;;;;10.73;9.73;;;14.50;99.90;;;;;;5094842;28;20170;-68
2021/08/21 04:28:32;;;;;;;11.00;10.10;;;14.50;99.90;;;;;;5091502;28;20704;-68
2021/08/21 04:30:58;;;;;;;11.43;10.23;;;14.40;99.90;;;;;;5074058;28;20166;-68
2021/08/21 04:33:23;;;;;;;11.40;10.40;;;14.50;99.90;;;;;;5075231;28;20198;-68
2021/08/21 04:35:50;;;;;;;10.53;9.53;;;14.50;99.90;;;;;;5094302;28;20270;-68
2021/08/21 04:38:16;;;;;;;12.83;10.90;;;14.50;99.90;;;;;;5092481;28;20517;-69
2021/08/21 04:40:44;;;;;;;12.17;10.60;;;14.60;99.90;;;;;;5072846;28;20658;-68
2021/08/21 04:43:10;;;;;;;10.70;9.67;;;14.60;99.90;;;;;;5073465;28;20194;-68
2021/08/21 04:45:36;;;;;;;13.77;10.63;;;14.60;99.90;;;;;;5077750;28;20170;-68
2021/08/21 04:48:02;;;;;;;11.90;10.80;;;14.60;99.90;;;;;;5092896;28;20176;-68
2021/08/21 04:50:28;;;;;;;11.77;10.53;;;14.60;99.90;;;;;;5074834;28;20212;-68
2021/08/21 04:52:53;;;;;;;11.57;10.37;;;14.60;99.90;;;;;;5073763;28;20205;-69
2021/08/21 04:55:19;;;;;;;12.23;10.63;;;14.60;99.90;;;;;;5075055;28;20186;-69
2021/08/21 04:57:45;;;;;;;16.73;10.90;;;14.70;99.90;;;;;;5073666;28;20189;-69
2021/08/21 05:00:11;;;;;;;11.37;10.47;;;14.70;99.90;;;;;;5086862;28;20189;-68
2021/08/21 05:02:36;;;;;;;14.37;11.70;;;14.90;99.90;;;;;;5092695;28;20574;-69
2021/08/21 05:05:02;;;;;;;11.90;10.73;;;14.90;99.90;;;;;;5080661;28;20216;-69
2021/08/21 05:07:28;;;;;;;11.70;10.50;;;15.00;99.90;;;;;;5073715;28;20166;-69
2021/08/21 05:09:53;;;;;;;11.43;10.43;;;15.00;99.90;;;;;;5083893;28;20185;-69
2021/08/21 05:12:19;;;;;;;11.30;10.27;;;15.00;99.90;;;;;;5093691;28;20193;-68
2021/08/21 05:14:44;;;;;;;11.63;10.63;;;15.00;99.90;;;;;;5083316;28;20228;-68
2021/08/21 05:17:10;;;;;;;14.40;11.33;;;15.10;99.90;;;;;;5073472;28;20221;-67
2021/08/21 05:19:51;;;;;;;13.50;11.33;;;15.10;99.90;;;;;;5080291;28;20182;-68
2021/08/21 05:22:28;;;;;;;13.67;11.70;;;15.20;99.90;;;;;;5093314;28;20266;-69
2021/08/21 05:24:54;;;;;;;12.50;11.10;;;15.20;99.90;;;;;;5091815;28;20196;-68
2021/08/21 05:27:22;;;;;;;13.37;12.07;;;15.20;99.90;;;;;;5093519;28;20241;-67
2021/08/21 05:29:48;;;;;;;12.63;11.53;;;15.30;99.90;;;;;;5083025;28;20174;-68
2021/08/21 05:32:14;;;;;;;12.50;11.17;;;15.40;99.90;;;;;;5071580;28;20296;-68
2021/08/21 05:34:40;;;;;;;12.77;11.57;;;15.40;99.90;;;;;;5078848;28;20696;-68
2021/08/21 05:37:06;;;;;;;13.87;12.40;;;15.60;99.90;;;;;;5071686;28;20178;-68
2021/08/21 05:39:32;;;;;;;14.00;11.90;;;15.70;99.90;;;;;;5079718;28;20182;-70
2021/08/21 05:41:59;;;;;;;12.93;11.77;;;15.80;99.90;;;;;;5091898;28;20606;-67
2021/08/21 05:44:25;;;;;;;14.83;13.53;;;16.00;99.90;;;;;;5086200;28;20205;-68
2021/08/21 05:46:50;;;;;;;12.77;11.63;;;16.10;99.90;;;;;;5082152;28;20181;-68
2021/08/21 05:49:16;;;;;;;12.27;10.97;;;16.20;99.90;;;;;;5086510;28;20178;-69
2021/08/21 05:51:41;;;;;;;12.07;10.87;;;16.30;99.90;;;;;;5070643;28;20178;-71
2021/08/21 05:54:07;;;;;;;11.30;10.20;;;16.40;99.90;;;;;;5074889;28;20268;-67
2021/08/21 05:56:32;;;;;;;11.43;10.33;;;16.40;99.90;;;;;;5092908;28;20307;-68
2021/08/21 05:58:58;;;;;;;13.37;12.17;;;16.40;99.90;;;;;;5090219;28;20197;-68
2021/08/21 06:01:24;;;;;;;12.60;11.30;;;16.50;99.90;;;;;;5072248;28;20181;-68
2021/08/21 06:03:51;;;;;;;12.60;11.40;;;16.50;99.90;;;;;;5071809;28;20624;-69
2021/08/21 06:06:19;;;;;;;12.10;11.07;;;16.60;99.90;;;;;;5092598;28;20170;-68
2021/08/21 06:08:45;;;;;;;11.77;10.60;;;16.60;99.90;;;;;;5090968;28;20302;-69
2021/08/21 06:11:10;;;;;;;12.33;10.97;;;16.70;99.90;;;;;;5071988;28;20186;-69
2021/08/21 06:13:36;;;;;;;11.93;10.90;;;16.70;99.90;;;;;;5072155;28;20193;-68
2021/08/21 06:16:02;;;;;;;11.73;10.53;;;16.60;99.90;;;;;;5090446;28;20592;-70
2021/08/21 06:18:27;;;;;;;11.73;10.57;;;16.60;99.90;;;;;;5092488;28;20700;-68
2021/08/21 06:20:53;;;;;;;12.60;11.37;;;16.50;99.90;;;;;;5072894;28;20190;-68
2021/08/21 06:23:19;;;;;;;11.03;9.97;;;16.50;99.90;;;;;;5071880;28;20579;-68
2021/08/21 06:25:44;;;;;;;12.90;11.60;;;16.50;99.90;;;;;;5071823;28;20185;-69
2021/08/21 06:28:10;;;;;;;11.87;10.67;;;16.50;99.90;;;;;;5072096;28;20579;-69
2021/08/21 06:30:35;;;;;;;11.97;10.87;;;16.50;99.90;;;;;;5074119;28;20178;-69
2021/08/21 06:33:01;;;;;;;13.97;12.53;;;16.60;99.90;;;;;;5090593;28;20570;-69
2021/08/21 06:35:27;;;;;;;13.13;11.90;;;16.80;99.90;;;;;;5089356;28;20188;-69
2021/08/21 06:37:52;;;;;;;12.50;11.40;;;17.00;99.90;;;;;;5090543;28;20173;-69
2021/08/21 06:40:18;;;;;;;10.97;9.90;;;17.20;99.90;;;;;;5078174;28;20186;-69
2021/08/21 06:42:43;;;;;;;11.80;10.80;;;17.40;99.90;;;;;;5070753;28;20202;-69
2021/08/21 06:45:10;;;;;;;10.53;9.60;;;17.70;99.90;;;;;;5081753;28;20208;-69
2021/08/21 06:47:35;;;;;;;9.37;8.57;;;18.00;99.90;;;;;;5077317;28;20179;-71
2021/08/21 06:50:04;;;;;;;9.57;8.67;;;18.20;99.90;;;;;;5079701;28;20173;-68
2021/08/21 06:52:29;;;;;;;12.27;8.70;;;18.40;99.90;;;;;;5092195;28;20564;-69
2021/08/21 06:54:55;;;;;;;8.83;8.13;;;18.70;99.90;;;;;;5083135;28;20273;-68
2021/08/21 06:57:21;;;;;;;9.80;8.47;;;19.10;99.90;;;;;;5071748;28;20170;-68
2021/08/21 06:59:47;;;;;;;7.87;7.27;;;19.50;99.90;;;;;;5076482;28;20173;-68
2021/08/21 07:02:13;;;;;;;8.60;7.90;;;19.80;99.90;;;;;;5091602;28;20587;-68
2021/08/21 07:04:40;;;;;;;8.47;7.83;;;20.30;99.90;;;;;;5087198;28;20228;-69
2021/08/21 07:07:07;;;;;;;8.47;7.87;;;20.60;99.90;;;;;;5070255;28;20707;-69
2021/08/21 07:09:33;;;;;;;7.27;6.77;;;21.20;99.90;;;;;;5074173;28;20165;-67
2021/08/21 07:12:00;;;;;;;7.80;7.20;;;21.60;99.90;;;;;;5075035;28;20194;-66
2021/08/21 07:14:25;;;;;;;8.15;6.47;;;21.80;99.90;;;;;;5073921;28;20557;-66
2021/08/21 07:16:51;;;;;;;8.18;6.78;;;22.20;99.90;;;;;;5091546;28;20174;-67
2021/08/21 07:19:16;;;;;;;6.85;6.35;;;22.50;99.90;;;;;;5090482;28;20567;-66
2021/08/21 07:21:42;;;;;;;6.47;5.97;;;22.70;99.90;;;;;;5070189;28;20671;-66
2021/08/21 07:24:08;;;;;;;6.90;6.35;;;22.80;99.90;;;;;;5068303;28;20197;-66
2021/08/21 07:26:33;;;;;;;6.40;6.00;;;22.80;99.90;;;;;;5069741;28;20219;-67
2021/08/21 07:28:59;;;;;;;7.20;6.60;;;23.20;99.90;;;;;;5071426;28;20181;-66
2021/08/21 07:31:24;;;;;;;6.22;5.82;;;23.20;99.90;;;;;;5072311;28;20199;-67
2021/08/21 07:33:50;;;;;;;8.60;7.20;;;23.30;99.90;;;;;;5071204;28;20220;-66
2021/08/21 07:36:15;;;;;;;7.30;6.80;;;23.40;99.90;;;;;;5087485;28;20520;-67
2021/08/21 07:38:41;;;;;;;6.72;6.18;;;23.50;99.90;;;;;;5090218;28;20174;-67
2021/08/21 07:41:09;;;;;;;7.25;6.72;;;23.80;99.90;;;;;;5075607;28;20685;-67
2021/08/21 07:43:34;;;;;;;7.07;6.57;;;24.10;99.90;;;;;;5071988;28;20556;-66
2021/08/21 07:46:00;;;;;;;6.32;5.82;;;24.40;99.90;;;;;;5075999;28;20181;-66
2021/08/21 07:48:26;;;;;;;6.88;6.32;;;24.70;99.90;;;;;;5092783;28;20605;-67
2021/08/21 07:50:51;;;;;;;7.40;6.80;;;24.80;99.90;;;;;;5087153;28;20201;-67
2021/08/21 07:53:17;;;;;;;5.97;5.57;;;24.70;99.90;;;;;;5077849;28;20197;-68
2021/08/21 07:55:43;;;;;;;6.72;6.13;;;25.00;99.90;;;;;;5095215;28;20622;-67
2021/08/21 07:58:08;;;;;;;6.35;5.75;;;25.10;99.90;;;;;;5093575;28;20172;-67
2021/08/21 08:00:34;;;;;;;5.60;5.20;;;25.20;99.90;;;;;;5074580;28;20169;-66
2021/08/21 08:03:00;;;;;;;5.63;5.18;;;25.20;99.90;;;;;;5074609;28;20783;-67
2021/08/21 08:05:25;;;;;;;5.70;5.30;;;25.30;99.90;;;;;;5094891;28;20296;-67
2021/08/21 08:07:51;;;;;;;6.07;5.53;;;25.30;99.90;;;;;;5094753;28;20252;-67
2021/08/21 08:10:17;;;;;;;5.35;5.05;;;25.40;99.90;;;;;;5092843;28;20181;-67
2021/08/21 08:12:43;;;;;;;6.05;5.63;;;25.70;99.90;;;;;;5094892;28;20231;-68
2021/08/21 08:15:10;;;;;;;6.03;5.53;;;25.90;99.90;;;;;;5076517;28;20564;-67
2021/08/21 08:17:35;;;;;;;5.40;5.00;;;26.00;99.90;;;;;;5074515;28;20186;-68
2021/08/21 08:20:02;;;;;;;6.97;6.38;;;26.20;99.90;;;;;;5090154;28;20174;-67
2021/08/21 08:22:28;;;;;;;5.70;5.38;;;25.90;99.90;;;;;;5094568;28;20280;-67
2021/08/21 08:24:54;;;;;;;6.75;6.25;;;26.00;99.90;;;;;;5078321;28;20216;-67
2021/08/21 08:27:20;;;;;;;6.28;5.85;;;26.10;99.90;;;;;;5072930;28;20174;-67
2021/08/21 08:29:45;;;;;;;5.93;5.35;;;26.10;99.90;;;;;;5074982;28;20578;-67
2021/08/21 08:32:11;;;;;;;6.47;6.10;;;26.00;99.90;;;;;;5072607;28;20194;-66
2021/08/21 08:34:37;;;;;;;5.93;5.53;;;26.30;99.90;;;;;;5076920;28;20639;-67
2021/08/21 08:37:06;;;;;;;6.78;6.38;;;26.40;99.90;;;;;;5074106;28;20202;-66
2021/08/21 08:39:31;;;;;;;6.65;6.18;;;26.30;99.90;;;;;;5085685;28;20182;-66
2021/08/21 08:41:59;;;;;;;6.63;6.03;;;26.10;99.90;;;;;;5093003;28;20195;-67
2021/08/21 08:44:27;;;;;;;15.45;6.95;;;25.80;99.90;;;;;;5082807;28;20205;-67
2021/08/21 08:46:52;;;;;;;6.13;5.53;;;25.70;99.90;;;;;;5073882;28;20197;-67
2021/08/21 08:49:19;;;;;;;6.88;6.38;;;25.70;99.90;;;;;;5074889;28;20664;-66
2021/08/21 08:51:45;;;;;;;7.93;7.25;;;25.70;99.90;;;;;;5087413;28;20174;-67
2021/08/21 08:54:11;;;;;;;6.60;6.10;;;25.90;99.90;;;;;;5084825;28;20652;-68
2021/08/21 08:56:36;;;;;;;7.28;6.78;;;26.20;99.90;;;;;;5073320;28;20635;-68
2021/08/21 08:59:02;;;;;;;6.32;5.93;;;26.50;99.90;;;;;;5079664;28;20177;-66
2021/08/21 09:01:27;;;;;;;6.50;6.00;;;26.90;99.90;;;;;;5093646;28;20183;-67
2021/08/21 09:04:16;;;;;;;6.55;6.03;;;27.40;99.90;;;;;;5088710;28;20198;-66
2021/08/21 09:06:42;;;;;;;7.60;6.82;;;27.80;99.90;;;;;;5083296;28;20212;-67
2021/08/21 09:09:13;;;;;;;7.88;7.20;;;27.80;99.90;;;;;;5087359;28;20212;-67
2021/08/21 09:11:49;;;;;;;6.80;6.30;;;27.60;99.90;;;;;;5073252;28;20251;-66
2021/08/21 09:14:16;;;;;;;7.63;7.03;;;27.60;99.90;;;;;;5076894;28;20715;-66
2021/08/21 09:16:42;;;;;;;7.18;6.60;;;27.80;99.90;;;;;;5093652;28;20178;-66
2021/08/21 09:19:07;;;;;;;6.80;6.30;;;27.70;99.90;;;;;;5088743;28;20189;-66
2021/08/21 09:21:34;;;;;;;6.15;5.65;;;27.70;99.90;;;;;;5072949;28;20174;-66
2021/08/21 09:23:59;;;;;;;8.20;6.65;;;27.60;99.90;;;;;;5073030;28;20202;-67
2021/08/21 09:26:30;;;;;;;6.15;5.57;;;27.00;99.90;;;;;;5082899;28;20185;-66
2021/08/21 09:28:59;;;;;;;5.45;5.05;;;26.80;99.90;;;;;;5072575;28;20170;-67
2021/08/21 09:31:34;;;;;;;5.55;5.05;;;26.70;99.90;;;;;;5079929;28;20185;-66
2021/08/21 09:34:06;;;;;;;5.55;5.05;;;26.80;99.90;;;;;;5093140;28;20552;-67
2021/08/21 09:36:40;;;;;;;5.57;5.07;;;27.00;99.90;;;;;;5093226;28;20170;-66
2021/08/21 09:39:11;;;;;;;4.90;4.60;;;27.20;99.90;;;;;;5093181;28;20193;-66
2021/08/21 09:42:00;;;;;;;5.15;4.85;;;27.70;99.90;;;;;;5092122;28;20253;-66
2021/08/21 09:44:34;;;;;;;6.03;5.47;;;28.00;99.90;;;;;;5093151;28;20340;-67
2021/08/21 09:47:25;;;;;;;6.53;6.00;;;28.10;99.90;;;;;;5093147;28;20532;-66
2021/08/21 09:49:52;;;;;;;5.80;5.40;;;28.20;99.90;;;;;;5092024;28;20561;-66
2021/08/21 09:52:19;;;;;;;8.23;7.72;;;28.30;99.90;;;;;;5092753;28;20343;-67
2021/08/21 09:55:02;;;;;;;7.13;6.68;;;28.10;99.90;;;;;;5092909;28;20226;-67
2021/08/21 09:57:28;;;;;;;6.13;5.72;;;27.80;99.90;;;;;;5092926;28;20169;-66
2021/08/21 09:59:59;;;;;;;6.15;5.63;;;27.90;99.90;;;;;;5092300;28;20700;-67
2021/08/21 10:02:28;;;;;;;5.75;5.35;;;27.70;99.90;;;;;;5092793;28;20240;-67
2021/08/21 10:04:54;;;;;;;5.30;4.90;;;27.80;99.90;;;;;;5092523;28;20312;-66
2021/08/21 10:07:23;;;;;;;5.75;5.35;;;27.90;99.90;;;;;;5092201;28;20598;-66
2021/08/21 10:09:52;;;;;;;5.43;5.03;;;27.90;99.90;;;;;;5090976;28;20177;-67
2021/08/21 10:12:20;;;;;;;6.00;5.60;;;27.90;99.90;;;;;;5092386;28;20650;-67
2021/08/21 10:14:47;;;;;;;6.22;5.82;;;27.90;99.90;;;;;;5092500;28;20169;-66
2021/08/21 10:17:20;;;;;;;6.07;5.65;;;28.00;99.90;;;;;;5092547;28;20203;-67
2021/08/21 10:19:47;;;;;;;5.70;5.20;;;28.00;99.90;;;;;;5092368;28;20173;-66
2021/08/21 10:22:14;;;;;;;5.50;5.00;;;28.00;99.90;;;;;;5104279;22;20211;-65
2021/08/21 10:24:48;;;;;;;5.28;4.97;;;28.20;99.90;;;;;;5079959;28;20291;-66
2021/08/21 10:27:52;;;;;;;4.93;4.63;;;28.60;99.90;;;;;;5051972;28;20182;-67
2021/08/21 10:30:20;;;;;;;5.43;5.13;;;29.10;99.90;;;;;;5078029;28;20186;-67
2021/08/21 10:33:06;;;;;;;5.78;5.30;;;29.20;99.90;;;;;;5090949;28;20719;-67
2021/08/21 10:35:56;;;;;;;5.88;5.47;;;29.20;99.90;;;;;;5071703;28;20197;-67
2021/08/21 10:38:31;;;;;;;5.63;5.32;;;29.50;99.90;;;;;;5076841;28;20186;-67
2021/08/21 10:41:09;;;;;;;5.57;5.20;;;29.60;99.90;;;;;;5091744;28;20602;-66
2021/08/21 10:43:48;;;;;;;4.85;4.53;;;29.50;99.90;;;;;;5090111;28;20208;-67
2021/08/21 10:46:33;;;;;;;6.20;5.70;;;29.30;99.90;;;;;;5090584;28;20271;-67
2021/08/21 10:49:01;;;;;;;5.75;4.93;;;29.40;99.90;;;;;;5081549;28;20169;-67
2021/08/21 10:51:32;;;;;;;5.32;4.82;;;29.60;99.90;;;;;;5071674;28;20170;-67
2021/08/21 10:53:59;;;;;;;5.25;4.75;;;29.80;99.90;;;;;;5080755;28;20281;-67
2021/08/21 10:56:36;;;;;;;4.30;4.00;;;29.90;99.90;;;;;;5091302;28;20197;-67
2021/08/21 10:59:02;;;;;;;5.07;4.68;;;30.30;99.90;;;;;;5081346;28;20235;-67
2021/08/21 11:01:28;;;;;;;4.88;4.57;;;30.20;99.90;;;;;;5070338;28;20249;-67
2021/08/21 11:03:55;;;;;;;4.57;4.38;;;30.10;99.90;;;;;;5079536;28;20297;-67
2021/08/21 11:06:34;;;;;;;4.90;4.60;;;30.00;99.90;;;;;;5091875;28;20200;-67
2021/08/21 11:09:11;;;;;;;4.97;4.45;;;30.20;99.90;;;;;;5082663;28;20181;-67
2021/08/21 11:11:46;;;;;;;4.68;4.45;;;30.00;99.90;;;;;;5070368;28;20573;-67
2021/08/21 11:14:22;;;;;;;4.40;4.20;;;30.00;99.90;;;;;;5074024;28;20674;-67
2021/08/21 11:17:01;;;;;;;4.82;4.53;;;29.90;99.90;;;;;;5071581;28;20166;-66
2021/08/21 11:19:27;;;;;;;4.93;4.63;;;30.10;99.90;;;;;;5086240;28;20201;-66
2021/08/21 11:22:12;;;;;;;4.45;4.22;;;30.00;99.90;;;;;;5095677;28;20254;-66
2021/08/21 11:24:57;;;;;;;4.40;4.20;;;30.20;99.90;;;;;;5082710;28;20292;-66
2021/08/21 11:27:22;;;;;;;4.53;4.22;;;30.50;99.90;;;;;;5078769;28;20312;-66
2021/08/21 11:30:10;;;;;;;4.35;4.15;;;30.60;99.90;;;;;;5071550;28;20691;-66
2021/08/21 11:33:02;;;;;;;4.85;4.47;;;30.70;99.90;;;;;;5075380;28;20610;-67
2021/08/21 11:35:30;;;;;;;4.63;4.32;;;30.60;99.90;;;;;;5094416;28;20201;-67
2021/08/21 11:38:10;;;;;;;4.95;4.63;;;30.40;99.90;;;;;;5095277;28;20188;-66
2021/08/21 11:40:44;;;;;;;5.10;4.80;;;30.00;99.90;;;;;;5075758;28;20174;-66
2021/08/21 11:43:14;;;;;;;5.30;4.90;;;29.70;99.90;;;;;;5082961;28;20205;-66
2021/08/21 11:45:40;;;;;;;4.53;4.10;;;29.70;99.90;;;;;;5074991;28;20638;-66
2021/08/21 11:48:07;;;;;;;4.90;4.60;;;29.80;99.90;;;;;;5075054;28;20205;-67
2021/08/21 11:50:44;;;;;;;4.50;4.20;;;30.10;99.90;;;;;;5074618;28;20162;-66
2021/08/21 11:53:16;;;;;;;4.70;4.38;;;30.20;99.90;;;;;;5075219;28;20667;-66
2021/08/21 11:55:42;;;;;;;5.25;4.95;;;30.40;99.90;;;;;;5075497;28;20268;-66
2021/08/21 11:58:09;;;;;;;4.90;4.60;;;30.40;99.90;;;;;;5081958;28;20257;-67
2021/08/21 12:00:37;;;;;;;6.00;5.50;;;30.50;99.90;;;;;;5074854;28;20193;-64
2021/08/21 12:03:06;;;;;;;4.93;4.63;;;30.30;99.90;;;;;;5074939;28;20194;-65
2021/08/21 12:05:40;;;;;;;5.85;5.45;;;30.40;99.90;;;;;;5073453;28;20783;-65
2021/08/21 12:08:27;;;;;;;4.78;4.47;;;30.30;99.90;;;;;;5090252;28;20182;-65
2021/08/21 12:10:55;;;;;;;5.20;4.80;;;29.80;99.90;;;;;;5094706;28;20161;-64
2021/08/21 12:13:33;;;;;;;5.30;5.00;;;29.70;99.90;;;;;;5077089;28;20687;-64
2021/08/21 12:16:14;;;;;;;5.30;4.90;;;29.70;99.90;;;;;;5072995;28;20681;-65
2021/08/21 12:18:44;;;;;;;4.95;4.60;;;29.90;99.90;;;;;;5077324;28;20277;-64
2021/08/21 12:21:17;;;;;;;5.38;5.07;;;30.30;99.90;;;;;;5074031;28;20162;-64
2021/08/21 12:23:44;;;;;;;4.80;4.50;;;30.80;99.90;;;;;;5073875;28;20214;-65
2021/08/21 12:26:10;;;;;;;5.00;4.63;;;30.80;99.90;;;;;;5074023;28;20169;-64
2021/08/21 12:28:43;;;;;;;5.63;5.32;;;30.90;99.90;;;;;;5073816;28;20170;-65
2021/08/21 12:31:10;;;;;;;4.93;4.55;;;30.90;99.90;;;;;;5053988;28;20171;-65
2021/08/21 12:33:54;;;;;;;4.70;4.40;;;31.30;99.90;;;;;;5088846;28;20193;-65
2021/08/21 12:36:21;;;;;;;5.63;5.13;;;31.30;99.90;;;;;;5077729;28;20174;-65
2021/08/21 12:39:08;;;;;;;4.47;4.25;;;31.40;99.90;;;;;;5074225;28;20162;-65
2021/08/21 12:41:53;;;;;;;5.50;4.88;;;31.70;99.90;;;;;;5091274;28;20188;-65
2021/08/21 12:44:23;;;;;;;4.90;4.60;;;32.30;99.90;;;;;;5094107;28;20201;-65